Time;durP1;ratioP1;P1;durP2;ratioP2;P2;SDS_P1;SDS_P2;PMS_P1;PMS_P2;Temp;Humidity;BMP_temperature;BMP_pressure;BME280_temperature;BME280_humidity;BME280_pressure;Samples;Min_cycle;Max_cycle;Signal;HPM_P1;HPM_P2
2023/12/30 00:01:12;;;;;;;3.23;2.93;;;;;;;12.73;52.41;98627.88;6956099;28;20320;-75
2023/12/30 00:04:35;;;;;;;3.07;2.77;;;;;;;13.24;51.82;98660.06;6965182;28;20365;-75
2023/12/30 00:07:56;;;;;;;2.50;2.30;;;;;;;13.21;52.52;98663.25;6967826;28;20349;-75
2023/12/30 00:11:18;;;;;;;2.97;2.67;;;;;;;13.75;51.20;98666.72;6967849;28;20217;-75
2023/12/30 00:14:39;;;;;;;2.77;2.43;;;;;;;13.79;50.94;98658.94;6969063;28;20376;-75
2023/12/30 00:18:01;;;;;;;2.70;2.50;;;;;;;13.81;50.82;98657.66;6972583;28;20351;-75
2023/12/30 00:21:24;;;;;;;2.30;2.10;;;;;;;13.87;50.47;98650.53;6970408;28;20222;-75
2023/12/30 00:24:45;;;;;;;2.77;2.57;;;;;;;13.92;49.62;98642.53;6957493;28;20310;-75
2023/12/30 00:28:08;;;;;;;2.67;2.47;;;;;;;13.75;49.69;98642.31;6944720;28;20215;-75
2023/12/30 00:31:31;;;;;;;2.77;2.57;;;;;;;13.17;51.49;98637.66;6951761;28;20216;-75
2023/12/30 00:34:52;;;;;;;2.47;2.30;;;;;;;13.54;50.65;98626.56;6972052;28;20853;-75
2023/12/30 00:38:15;;;;;;;3.30;2.53;;;;;;;13.73;50.72;98622.78;6963684;28;20203;-75
2023/12/30 00:41:37;;;;;;;2.57;2.37;;;;;;;13.60;51.03;98632.94;6961674;28;20349;-74
2023/12/30 00:44:59;;;;;;;2.73;2.53;;;;;;;13.66;50.73;98615.78;6964875;28;20253;-75
2023/12/30 00:48:20;;;;;;;2.77;2.57;;;;;;;14.07;49.92;98619.38;6971416;28;20556;-75
2023/12/30 00:51:42;;;;;;;2.60;2.40;;;;;;;14.12;49.78;98624.91;6962182;28;20293;-75
2023/12/30 00:55:05;;;;;;;2.53;2.30;;;;;;;14.08;50.29;98615.59;6971515;28;20343;-75
2023/12/30 00:58:27;;;;;;;2.40;2.30;;;;;;;14.16;49.96;98612.53;6971322;28;20586;-75
2023/12/30 01:01:48;;;;;;;2.50;2.30;;;;;;;14.37;50.43;98624.75;6962266;28;20294;-75
2023/12/30 01:05:10;;;;;;;2.33;2.23;;;;;;;14.10;50.38;98615.38;6971656;28;20293;-75
2023/12/30 01:08:31;;;;;;;3.67;2.37;;;;;;;14.17;50.11;98608.75;6971606;28;20355;-75
2023/12/30 01:11:54;;;;;;;3.40;2.50;;;;;;;14.43;50.04;98632.78;6970355;28;20313;-75
2023/12/30 01:15:16;;;;;;;2.77;2.57;;;;;;;14.27;50.72;98643.50;6970790;28;20266;-75
2023/12/30 01:18:37;;;;;;;3.17;2.63;;;;;;;14.00;51.07;98648.47;6970745;28;20838;-75
2023/12/30 01:21:59;;;;;;;4.73;2.60;;;;;;;14.38;50.39;98656.22;6970653;28;20323;-75
2023/12/30 01:25:20;;;;;;;2.40;2.30;;;;;;;13.86;52.16;98654.28;6970746;28;20220;-75
2023/12/30 01:28:43;;;;;;;2.37;2.17;;;;;;;14.15;51.18;98664.31;6970751;28;20234;-75
2023/12/30 01:32:06;;;;;;;2.83;2.33;;;;;;;14.23;50.81;98664.81;6969087;28;20264;-75
2023/12/30 01:35:27;;;;;;;3.00;2.40;;;;;;;13.89;51.79;98670.06;6970891;28;20305;-75
2023/12/30 01:38:49;;;;;;;2.73;2.50;;;;;;;13.68;52.45;98667.88;6970278;28;20316;-75
2023/12/30 01:42:10;;;;;;;2.50;2.30;;;;;;;14.09;52.08;98673.34;6970007;28;20667;-75
2023/12/30 01:45:33;;;;;;;2.77;2.40;;;;;;;14.00;52.19;98683.69;6967162;28;20347;-75
2023/12/30 01:48:55;;;;;;;2.70;2.50;;;;;;;13.94;53.26;98694.63;6969809;28;20580;-75
2023/12/30 01:52:16;;;;;;;3.00;2.70;;;;;;;14.21;52.53;98704.09;6969362;28;20360;-75
2023/12/30 01:55:38;;;;;;;2.60;2.40;;;;;;;13.82;53.97;98697.28;6970006;28;20368;-75
2023/12/30 01:59:00;;;;;;;3.50;2.77;;;;;;;13.92;53.33;98696.75;6970205;28;20702;-75
2023/12/30 02:02:23;;;;;;;2.70;2.50;;;;;;;13.93;53.81;98696.50;6969431;28;20359;-75
2023/12/30 02:05:45;;;;;;;2.73;2.53;;;;;;;14.09;53.88;98711.31;6969891;28;20206;-75
2023/12/30 02:09:08;;;;;;;4.77;2.63;;;;;;;13.81;54.75;98711.88;6969677;28;20211;-75
2023/12/30 02:12:29;;;;;;;3.63;2.80;;;;;;;13.92;54.36;98710.28;6969152;28;20307;-75
2023/12/30 02:15:51;;;;;;;2.50;2.30;;;;;;;14.42;52.98;98717.94;6969752;28;20276;-75
2023/12/30 02:19:14;;;;;;;3.63;2.73;;;;;;;14.10;53.62;98707.53;6969504;28;20229;-75
2023/12/30 02:22:35;;;;;;;3.10;2.37;;;;;;;14.43;53.13;98716.03;6969103;28;20776;-75
2023/12/30 02:25:58;;;;;;;2.93;2.73;;;;;;;14.47;52.95;98714.53;6969159;28;20297;-75
2023/12/30 02:29:19;;;;;;;3.00;2.70;;;;;;;14.05;53.76;98716.34;6968200;28;20359;-75
2023/12/30 02:32:41;;;;;;;2.87;2.60;;;;;;;13.86;53.97;98712.00;6969228;28;20708;-75
2023/12/30 02:36:02;;;;;;;2.90;2.60;;;;;;;13.86;53.47;98700.38;6968725;28;20207;-75
2023/12/30 02:39:24;;;;;;;3.00;2.70;;;;;;;13.56;54.27;98700.31;6968070;28;20234;-75
2023/12/30 02:42:47;;;;;;;2.60;2.40;;;;;;;13.51;54.14;98707.47;6968727;28;20375;-75
2023/12/30 02:46:08;;;;;;;2.57;2.43;;;;;;;13.73;53.86;98714.91;6968694;28;20368;-75
2023/12/30 02:49:32;;;;;;;2.60;2.40;;;;;;;13.63;54.44;98708.38;6968040;28;20293;-75
2023/12/30 02:52:54;;;;;;;3.00;2.80;;;;;;;13.63;54.21;98720.00;6961058;28;20383;-75
2023/12/30 02:56:19;;;;;;;2.97;2.67;;;;;;;13.61;54.18;98722.13;6968543;28;20308;-75
2023/12/30 02:59:42;;;;;;;2.80;2.60;;;;;;;12.97;55.84;98701.97;6968149;28;20242;-75
2023/12/30 03:03:04;;;;;;;2.60;2.40;;;;;;;13.45;55.38;98725.44;6955883;28;20709;-75
2023/12/30 03:06:25;;;;;;;3.53;2.77;;;;;;;13.63;54.65;98730.84;6939113;28;20214;-75
2023/12/30 03:09:47;;;;;;;3.77;2.50;;;;;;;13.66;54.45;98743.97;6940627;28;20737;-75
2023/12/30 03:13:08;;;;;;;2.60;2.40;;;;;;;13.12;55.93;98738.50;6941120;28;20227;-75
2023/12/30 03:16:32;;;;;;;2.80;2.60;;;;;;;13.36;55.89;98751.16;6951763;28;20575;-75
2023/12/30 03:19:53;;;;;;;3.23;2.60;;;;;;;13.51;55.27;98751.63;6966682;28;20282;-75
2023/12/30 03:23:15;;;;;;;3.73;2.63;;;;;;;13.52;55.20;98760.59;6966776;28;20349;-75
2023/12/30 03:26:36;;;;;;;3.00;2.70;;;;;;;13.49;55.24;98753.72;6957378;28;20796;-75
2023/12/30 03:29:58;;;;;;;2.87;2.60;;;;;;;13.08;56.43;98752.69;6940346;28;20619;-75
2023/12/30 03:33:21;;;;;;;3.03;2.40;;;;;;;13.15;56.28;98759.69;6941064;28;20227;-75
2023/12/30 03:36:42;;;;;;;2.40;2.30;;;;;;;13.42;55.34;98746.72;6956750;28;20309;-75
2023/12/30 03:40:04;;;;;;;3.03;2.40;;;;;;;13.25;56.18;98754.59;6960006;28;20288;-76
2023/12/30 03:43:26;;;;;;;3.03;2.73;;;;;;;13.22;56.09;98754.22;6972720;28;20271;-75
2023/12/30 03:46:47;;;;;;;2.90;2.37;;;;;;;13.25;56.04;98759.19;6961935;28;20346;-75
2023/12/30 03:50:11;;;;;;;3.47;2.40;;;;;;;13.21;55.82;98766.13;6972887;28;20211;-75
2023/12/30 03:53:33;;;;;;;4.53;2.40;;;;;;;13.27;55.96;98757.91;6971315;28;20598;-75
2023/12/30 03:56:55;;;;;;;2.50;2.30;;;;;;;13.36;56.20;98766.56;6971433;28;20726;-75
2023/12/30 04:00:17;;;;;;;3.27;2.30;;;;;;;13.13;57.56;98772.63;6972174;28;20717;-75
2023/12/30 04:03:39;;;;;;;2.50;2.30;;;;;;;13.22;57.35;98765.06;6972702;28;20261;-75
2023/12/30 04:07:02;;;;;;;2.73;2.47;;;;;;;13.75;55.73;98768.88;6973144;28;20351;-75
2023/12/30 04:10:25;;;;;;;2.60;2.40;;;;;;;13.38;56.29;98773.44;6957321;28;20681;-75
2023/12/30 04:13:46;;;;;;;3.80;2.53;;;;;;;13.58;56.59;98768.63;6958451;28;20338;-75
2023/12/30 04:17:08;;;;;;;2.43;2.23;;;;;;;13.76;55.80;98771.31;6970181;28;20317;-75
2023/12/30 04:20:29;;;;;;;2.57;2.37;;;;;;;13.39;56.36;98758.00;6971343;28;20762;-75
2023/12/30 04:23:52;;;;;;;3.23;2.53;;;;;;;13.27;56.78;98763.31;6972680;28;20314;-75
2023/12/30 04:27:13;;;;;;;4.10;3.27;;;;;;;13.74;54.82;98768.03;6972471;28;20313;-75
2023/12/30 04:30:35;;;;;;;2.70;2.50;;;;;;;13.28;56.39;98775.00;6971266;28;20210;-75
2023/12/30 04:33:56;;;;;;;2.80;2.37;;;;;;;13.61;56.14;98772.75;6970783;28;20235;-75
2023/12/30 04:37:18;;;;;;;4.67;2.27;;;;;;;13.64;55.21;98775.03;6971968;28;20575;-75
2023/12/30 04:40:41;;;;;;;2.20;2.10;;;;;;;13.62;55.75;98783.38;6971400;28;20324;-75
2023/12/30 04:44:02;;;;;;;3.03;2.40;;;;;;;13.49;56.29;98778.09;6971902;28;20345;-75
2023/12/30 04:47:24;;;;;;;3.43;2.17;;;;;;;13.68;55.79;98768.94;6971081;28;20625;-75
2023/12/30 04:50:45;;;;;;;2.37;2.17;;;;;;;13.33;56.77;98775.16;6967923;28;20345;-75
2023/12/30 04:54:07;;;;;;;2.60;2.40;;;;;;;13.77;56.17;98778.44;6969001;28;20333;-75
2023/12/30 04:57:30;;;;;;;2.87;2.10;;;;;;;13.71;55.69;98775.78;6969115;28;20336;-75
2023/12/30 05:00:51;;;;;;;3.53;2.40;;;;;;;13.63;55.73;98778.81;6970354;28;20279;-75
2023/12/30 05:04:13;;;;;;;2.83;2.33;;;;;;;13.71;55.92;98778.50;6971050;28;20364;-75
2023/12/30 05:07:34;;;;;;;2.20;2.10;;;;;;;14.04;54.50;98779.75;6970690;28;20293;-75
2023/12/30 05:10:56;;;;;;;2.33;2.10;;;;;;;14.09;54.29;98773.66;6969060;28;20285;-75
2023/12/30 05:14:19;;;;;;;5.27;2.07;;;;;;;13.71;55.10;98783.91;6971027;28;20728;-75
2023/12/30 05:17:41;;;;;;;2.90;2.20;;;;;;;13.66;54.96;98775.63;6970786;28;20235;-75
2023/12/30 05:21:03;;;;;;;2.50;2.10;;;;;;;13.57;55.31;98780.50;6970464;28;20758;-75
2023/12/30 05:24:24;;;;;;;2.50;2.20;;;;;;;13.94;54.13;98770.50;6969904;28;20236;-75
2023/12/30 05:27:46;;;;;;;2.67;2.00;;;;;;;13.41;55.55;98775.69;6970042;28;20859;-75
2023/12/30 05:31:08;;;;;;;2.23;2.13;;;;;;;13.56;54.81;98788.84;6969705;28;20754;-75
2023/12/30 05:34:30;;;;;;;1.83;1.73;;;;;;;13.68;55.06;98785.19;6970361;28;20360;-75
2023/12/30 05:37:52;;;;;;;3.20;2.00;;;;;;;14.04;54.32;98781.66;6970963;28;20253;-75
2023/12/30 05:41:13;;;;;;;1.80;1.70;;;;;;;13.88;54.76;98774.13;6969702;28;20234;-75
2023/12/30 05:44:34;;;;;;;1.80;1.70;;;;;;;13.59;55.43;98773.00;6969305;28;20272;-75
2023/12/30 05:47:57;;;;;;;2.10;1.90;;;;;;;13.79;55.27;98772.75;6951662;28;20293;-75
2023/12/30 05:51:19;;;;;;;7.00;2.23;;;;;;;13.33;56.63;98775.97;6969591;28;20748;-75
2023/12/30 05:54:40;;;;;;;2.10;2.00;;;;;;;13.49;55.93;98769.13;6969923;28;20367;-75
2023/12/30 05:58:02;;;;;;;1.80;1.70;;;;;;;13.30;56.69;98770.19;6970885;28;20210;-75
2023/12/30 06:01:23;;;;;;;1.47;1.43;;;;;;;13.45;56.34;98774.19;6985194;28;21039;-75
2023/12/30 06:04:46;;;;;;;2.00;1.90;;;;;;;13.17;57.44;98773.81;6967490;28;20351;-75
2023/12/30 06:08:07;;;;;;;1.87;1.77;;;;;;;13.32;56.79;98782.44;6970015;28;20305;-75
2023/12/30 06:11:29;;;;;;;3.57;1.80;;;;;;;13.30;57.08;98767.47;6969391;28;20205;-75
2023/12/30 06:14:51;;;;;;;1.90;1.80;;;;;;;13.06;57.81;98771.03;6969371;28;20237;-75
2023/12/30 06:18:13;;;;;;;2.10;1.90;;;;;;;12.92;58.62;98781.09;6960066;28;20199;-75
2023/12/30 06:21:35;;;;;;;2.00;1.83;;;;;;;13.21;57.83;98774.22;6955017;28;20321;-75
2023/12/30 06:24:57;;;;;;;2.47;2.07;;;;;;;13.51;56.35;98770.56;6960714;28;20203;-75
2023/12/30 06:28:19;;;;;;;1.57;1.47;;;;;;;13.23;57.54;98788.38;6969578;28;20283;-75
2023/12/30 06:31:41;;;;;;;4.37;2.10;;;;;;;13.03;58.56;98783.13;6968520;28;20343;-75
2023/12/30 06:35:03;;;;;;;1.87;1.70;;;;;;;12.93;58.82;98798.97;6969277;28;20203;-75
2023/12/30 06:38:26;;;;;;;1.97;1.87;;;;;;;13.34;58.01;98796.56;6968256;28;20208;-75
2023/12/30 06:41:47;;;;;;;1.77;1.67;;;;;;;13.09;58.80;98803.88;6965083;28;20360;-75
2023/12/30 06:45:09;;;;;;;1.70;1.60;;;;;;;13.25;58.70;98802.50;6969372;28;20368;-75
2023/12/30 06:48:31;;;;;;;2.90;1.93;;;;;;;13.39;57.99;98804.06;6969249;28;20205;-75
2023/12/30 06:51:52;;;;;;;1.60;1.50;;;;;;;13.65;57.33;98810.03;6968630;28;20301;-78
2023/12/30 06:55:15;;;;;;;1.70;1.60;;;;;;;13.81;57.05;98816.75;6968034;28;20292;-75
2023/12/30 06:58:37;;;;;;;2.10;1.60;;;;;;;13.64;57.33;98821.09;6967791;28;20343;-75
2023/12/30 07:01:58;;;;;;;2.07;1.80;;;;;;;13.87;56.27;98826.69;6968092;28;20252;-75
2023/12/30 07:05:20;;;;;;;1.47;1.47;;;;;;;13.96;56.26;98825.31;6952425;28;20289;-76
2023/12/30 07:08:41;;;;;;;1.90;1.70;;;;;;;13.92;56.26;98833.06;6968813;28;20209;-75
2023/12/30 07:12:05;;;;;;;1.90;1.80;;;;;;;13.53;57.27;98830.78;6967615;28;20229;-75
2023/12/30 07:15:27;;;;;;;2.50;1.90;;;;;;;13.67;56.89;98805.22;6956645;28;20399;-75
2023/12/30 07:18:48;;;;;;;2.13;1.70;;;;;;;13.91;56.17;98826.00;6965340;28;20348;-75
2023/12/30 07:22:10;;;;;;;2.40;2.20;;;;;;;14.08;55.80;98816.22;6955376;28;20637;-75
2023/12/30 07:25:31;;;;;;;3.47;2.10;;;;;;;13.97;56.23;98822.38;6942896;28;20345;-77
2023/12/30 07:28:54;;;;;;;2.23;2.03;;;;;;;14.14;55.51;98839.69;6966772;28;20716;-75
2023/12/30 07:32:16;;;;;;;2.17;1.70;;;;;;;13.64;57.06;98845.47;6963182;28;20223;-75
2023/12/30 07:35:38;;;;;;;2.93;2.03;;;;;;;13.98;55.93;98828.66;6964989;28;20747;-75
2023/12/30 07:38:59;;;;;;;2.47;1.93;;;;;;;14.05;56.05;98842.94;6968053;28;20294;-75
2023/12/30 07:42:21;;;;;;;3.17;2.10;;;;;;;14.05;55.96;98824.78;6967315;28;20299;-75
2023/12/30 07:45:44;;;;;;;2.40;2.20;;;;;;;13.72;56.95;98824.34;6968146;28;20214;-75
2023/12/30 07:49:05;;;;;;;2.57;2.20;;;;;;;13.51;58.25;98845.59;6968119;28;20206;-75
2023/12/30 07:52:27;;;;;;;3.17;2.43;;;;;;;13.88;57.01;98836.47;6966706;28;20279;-75
2023/12/30 07:55:48;;;;;;;2.83;2.20;;;;;;;13.52;58.48;98839.94;6966104;28;20652;-75
2023/12/30 07:59:11;;;;;;;3.17;2.60;;;;;;;13.68;58.06;98843.97;6967546;28;20251;-75
2023/12/30 08:02:34;;;;;;;2.30;1.90;;;;;;;13.81;57.48;98833.00;6967553;28;20235;-75
2023/12/30 08:05:56;;;;;;;2.23;2.10;;;;;;;13.83;57.58;98837.16;6967627;28;20298;-75
2023/12/30 08:09:17;;;;;;;2.73;2.17;;;;;;;13.73;58.31;98844.97;6963999;28;20680;-75
2023/12/30 08:12:39;;;;;;;2.53;2.20;;;;;;;13.78;58.20;98847.00;6964865;28;20315;-75
2023/12/30 08:16:00;;;;;;;2.20;2.10;;;;;;;14.02;57.46;98838.81;6967343;28;20301;-75
2023/12/30 08:19:23;;;;;;;2.33;2.13;;;;;;;14.39;56.88;98839.66;6963013;28;20289;-75
2023/12/30 08:22:44;;;;;;;2.60;2.00;;;;;;;14.54;55.87;98848.19;6937714;28;20227;-76
2023/12/30 08:26:06;;;;;;;2.10;1.90;;;;;;;14.29;56.15;98856.44;6960585;28;20336;-75
2023/12/30 08:29:27;;;;;;;2.90;1.90;;;;;;;14.31;56.17;98848.91;6970831;28;20371;-76
2023/12/30 08:32:49;;;;;;;2.37;1.93;;;;;;;14.59;55.47;98868.16;6969031;28;20219;-76
2023/12/30 08:36:12;;;;;;;1.97;1.87;;;;;;;14.29;55.86;98861.84;6970942;28;20647;-75
2023/12/30 08:39:33;;;;;;;2.00;1.90;;;;;;;14.32;55.63;98864.13;6953503;28;20344;-75
2023/12/30 08:42:55;;;;;;;2.40;2.30;;;;;;;13.93;55.77;98807.63;6971622;28;20381;-76
2023/12/30 08:46:16;;;;;;;2.00;1.70;;;;;;;14.16;56.05;98864.69;6953169;28;20368;-76
2023/12/30 08:49:38;;;;;;;2.13;1.90;;;;;;;14.28;55.76;98860.19;6954638;28;20213;-76
2023/12/30 08:53:00;;;;;;;4.20;2.13;;;;;;;14.46;55.65;98875.66;6969990;28;20309;-76
2023/12/30 08:56:22;;;;;;;2.43;2.13;;;;;;;14.64;55.26;98868.28;6966643;28;20213;-77
2023/12/30 08:59:43;;;;;;;2.20;2.00;;;;;;;14.53;55.33;98865.53;6961619;28;20353;-77
2023/12/30 09:03:05;;;;;;;3.43;2.10;;;;;;;14.43;55.89;98871.50;6960713;28;21118;-76
2023/12/30 09:06:26;;;;;;;3.80;2.20;;;;;;;14.72;55.08;98875.28;6966904;28;20354;-77
2023/12/30 09:09:49;;;;;;;2.40;2.20;;;;;;;14.65;55.19;98875.41;6967347;28;20619;-79
2023/12/30 09:13:11;;;;;;;4.13;1.83;;;;;;;14.93;54.19;98874.78;6970993;28;20283;-77
2023/12/30 09:16:33;;;;;;;2.07;1.90;;;;;;;14.85;53.59;98877.81;6973203;28;20214;-76
2023/12/30 09:19:54;;;;;;;2.20;1.97;;;;;;;14.69;54.44;98875.75;6969819;28;20215;-76
2023/12/30 09:23:16;;;;;;;2.23;2.00;;;;;;;15.47;52.39;98886.31;6967243;28;20306;-77
2023/12/30 09:26:38;;;;;;;1.80;1.70;;;;;;;14.92;54.14;98879.38;6968008;28;20349;-76
2023/12/30 09:30:00;;;;;;;2.30;2.10;;;;;;;14.97;53.96;98890.38;6966203;28;20293;-76
2023/12/30 11:29:13;;;;;;;3.67;1.60;;;;;;;17.36;40.97;98866.09;7078603;27;20643;-81
2023/12/30 11:32:34;;;;;;;2.40;1.67;;;;;;;17.63;39.56;98853.50;7078274;27;20355;-80
2023/12/30 11:35:56;;;;;;;1.40;1.30;;;;;;;17.20;40.70;98862.28;7077664;27;20255;-79
2023/12/30 11:39:24;;;;;;;1.70;1.60;;;;;;;17.38;41.03;98851.19;7077231;27;20409;-80
2023/12/30 11:42:45;;;;;;;2.33;1.43;;;;;;;17.08;39.92;98855.22;7078266;27;20201;-80
2023/12/30 11:46:08;;;;;;;1.97;1.77;;;;;;;16.65;41.05;98849.53;7073418;27;20210;-80
2023/12/30 11:49:30;;;;;;;3.80;1.57;;;;;;;16.80;40.58;98850.63;7066541;28;20238;-80
2023/12/30 11:52:51;;;;;;;2.00;1.77;;;;;;;16.98;40.33;98842.25;7076679;28;20240;-80
2023/12/30 11:56:15;;;;;;;1.60;1.50;;;;;;;16.45;40.57;98843.69;7077845;27;20770;-80
2023/12/30 11:59:36;;;;;;;1.20;1.10;;;;;;;16.72;40.78;98818.38;7076821;27;20707;-79
2023/12/30 12:02:59;;;;;;;1.70;1.60;;;;;;;16.24;41.79;98836.13;7077386;27;20224;-79
2023/12/30 12:06:21;;;;;;;1.50;1.40;;;;;;;15.81;41.90;98820.22;7057929;27;20290;-80
2023/12/30 12:09:43;;;;;;;1.30;1.30;;;;;;;16.19;41.66;98823.25;7048474;28;20714;-80
2023/12/30 12:13:09;;;;;;;1.53;1.43;;;;;;;16.23;41.98;98820.88;7049148;28;20207;-80
2023/12/30 12:16:32;;;;;;;2.50;1.70;;;;;;;16.55;41.70;98822.94;7057865;28;20212;-80
2023/12/30 12:19:56;;;;;;;1.47;1.47;;;;;;;16.57;41.85;98814.53;7075620;27;20249;-82
2023/12/30 12:23:18;;;;;;;1.67;1.57;;;;;;;17.30;40.23;98804.41;7070218;27;20328;-80
2023/12/30 12:26:40;;;;;;;1.30;1.30;;;;;;;17.29;40.44;98810.94;7047591;28;20250;-80
2023/12/30 12:30:02;;;;;;;1.53;1.40;;;;;;;16.91;41.77;98800.72;7029580;28;20228;-82
2023/12/30 12:33:24;;;;;;;2.00;1.60;;;;;;;17.03;41.10;98765.25;7029179;28;20666;-80
2023/12/30 12:36:47;;;;;;;1.90;1.67;;;;;;;17.58;40.96;98796.16;7053193;28;20223;-80
2023/12/30 12:40:12;;;;;;;1.77;1.67;;;;;;;17.71;39.63;98793.06;7029024;28;20434;-78
2023/12/30 12:43:34;;;;;;;1.60;1.50;;;;;;;17.06;39.79;98792.00;7028770;28;20298;-81
2023/12/30 12:46:55;;;;;;;2.27;1.50;;;;;;;17.26;39.71;98765.06;7048958;28;20245;-81
2023/12/30 12:50:17;;;;;;;1.83;1.57;;;;;;;17.19;39.88;98781.63;7050287;28;20270;-81
2023/12/30 12:53:41;;;;;;;1.20;1.20;;;;;;;16.94;40.27;98780.34;7056163;28;20790;-81
2023/12/30 12:57:03;;;;;;;1.57;1.50;;;;;;;17.02;40.39;98780.78;7046035;28;20714;-80
2023/12/30 13:00:25;;;;;;;1.70;1.60;;;;;;;16.91;41.27;98765.34;7028184;28;20299;-82
2023/12/30 13:03:46;;;;;;;2.23;2.03;;;;;;;17.68;40.01;98758.13;7028259;28;20310;-81
2023/12/30 13:07:08;;;;;;;2.70;2.23;;;;;;;17.50;39.73;98763.84;7036856;28;20199;-79
2023/12/30 13:10:41;;;;;;;2.43;2.07;;;;;;;17.64;40.43;98759.72;7056362;28;20211;-81
2023/12/30 13:14:09;;;;;;;2.50;1.60;;;;;;;17.75;39.44;98745.16;7056593;28;20191;-81
2023/12/30 13:17:30;;;;;;;2.53;1.70;;;;;;;17.73;39.12;98750.00;7055244;28;20290;-81
2023/12/30 13:20:52;;;;;;;1.70;1.60;;;;;;;17.67;39.03;98753.72;7076640;27;20347;-81
2023/12/30 13:24:14;;;;;;;1.63;1.53;;;;;;;17.64;38.76;98755.06;7077640;27;20224;-81
2023/12/30 13:27:36;;;;;;;1.07;1.07;;;;;;;17.27;39.48;98759.38;7044351;28;20231;-81
2023/12/30 13:30:58;;;;;;;3.07;1.97;;;;;;;17.50;39.14;98715.63;7027577;28;20244;-81
2023/12/30 13:34:20;;;;;;;2.87;2.40;;;;;;;17.29;39.87;98749.06;7056486;28;20268;-81
2023/12/30 13:37:42;;;;;;;252.87;92.07;;;;;;;17.48;40.49;98755.09;7049458;28;20228;-80
2023/12/30 13:41:04;;;;;;;18.23;9.13;;;;;;;17.32;40.45;98754.03;7025343;28;20203;-80
2023/12/30 13:44:28;;;;;;;32.90;16.27;;;;;;;17.14;41.57;98740.66;7036361;28;20644;-81
2023/12/30 13:51:28;;;;;;;2.17;2.00;;;;;;;17.03;41.53;98744.28;7024326;28;20646;-81
2023/12/30 13:54:50;;;;;;;1.67;1.57;;;;;;;16.38;41.94;98754.00;7025579;28;20297;-81
2023/12/30 13:58:11;;;;;;;2.20;2.00;;;;;;;16.75;42.15;98738.91;7037989;28;20714;-82
2023/12/30 14:01:35;;;;;;;1.60;1.50;;;;;;;16.61;42.07;98742.19;7052671;28;20231;-80
2023/12/30 14:04:57;;;;;;;1.70;1.60;;;;;;;17.04;41.29;98756.03;7053972;28;20217;-80
2023/12/30 14:08:26;;;;;;;1.73;1.60;;;;;;;16.67;41.98;98750.19;7052779;28;20807;-80
2023/12/30 14:11:52;;;;;;;1.60;1.50;;;;;;;16.73;42.32;98742.94;7054000;28;20191;-81
2023/12/30 14:15:15;;;;;;;2.10;1.80;;;;;;;17.02;41.91;98745.38;7052825;28;20193;-80
2023/12/30 14:18:38;;;;;;;2.00;1.90;;;;;;;17.02;42.61;98734.47;7052873;28;20612;-80
2023/12/30 14:22:00;;;;;;;1.73;1.63;;;;;;;16.52;42.62;98733.59;7027101;28;20298;-80
2023/12/30 14:25:21;;;;;;;1.93;1.80;;;;;;;16.19;43.13;98736.19;7024714;28;20666;-80
2023/12/30 14:28:43;;;;;;;1.80;1.70;;;;;;;16.42;43.00;98733.41;7024079;28;20320;-80
2023/12/30 14:32:06;;;;;;;2.13;2.03;;;;;;;16.83;42.69;98732.22;7024784;28;20211;-79
2023/12/30 14:35:29;;;;;;;2.10;2.00;;;;;;;16.82;42.68;98731.41;7024911;28;20203;-80
2023/12/30 14:38:51;;;;;;;3.50;2.13;;;;;;;16.69;42.44;98722.75;7024126;28;20237;-80
2023/12/30 14:42:14;;;;;;;2.93;1.80;;;;;;;16.90;42.04;98716.56;7029682;28;20348;-80
2023/12/30 14:45:35;;;;;;;2.20;1.90;;;;;;;17.06;41.57;98716.56;7030389;28;20646;-79
2023/12/30 14:48:58;;;;;;;2.70;1.90;;;;;;;16.30;43.07;98716.28;7040916;28;20319;-80
2023/12/30 14:52:20;;;;;;;2.47;1.90;;;;;;;16.87;42.40;98709.69;7036431;28;20211;-78
2023/12/30 14:55:42;;;;;;;1.90;1.60;;;;;;;17.14;41.90;98707.97;7026661;28;20698;-80
2023/12/30 14:59:03;;;;;;;2.30;1.80;;;;;;;17.00;42.67;98700.38;7035467;28;20261;-79
2023/12/30 15:02:27;;;;;;;2.37;1.93;;;;;;;17.02;43.04;98704.50;7025788;28;20711;-79
2023/12/30 15:05:49;;;;;;;2.13;1.97;;;;;;;16.98;43.07;98697.09;7025448;28;20206;-80
2023/12/30 15:09:12;;;;;;;3.47;2.10;;;;;;;17.13;42.75;98697.31;7024942;28;20708;-80
2023/12/30 15:12:34;;;;;;;2.93;2.00;;;;;;;16.88;42.42;98691.47;7025639;28;20788;-80
2023/12/30 15:15:56;;;;;;;1.57;1.50;;;;;;;16.90;42.38;98708.38;7025147;28;20299;-80
2023/12/30 15:19:17;;;;;;;4.00;2.10;;;;;;;16.79;42.71;98698.38;7024048;28;20911;-79
2023/12/30 15:22:39;;;;;;;4.27;2.00;;;;;;;16.11;45.09;98690.31;7029821;28;20209;-80
2023/12/30 15:26:02;;;;;;;2.87;2.10;;;;;;;16.27;45.00;98699.63;7052492;28;20213;-80
2023/12/30 15:29:23;;;;;;;5.03;2.27;;;;;;;16.24;45.40;98692.78;7051785;28;20223;-79
2023/12/30 15:32:45;;;;;;;5.10;2.30;;;;;;;16.42;44.96;98700.75;7052805;28;20229;-79
2023/12/30 15:36:07;;;;;;;2.57;2.37;;;;;;;16.44;45.41;98686.88;7052634;28;20679;-79
2023/12/30 15:39:29;;;;;;;3.27;2.40;;;;;;;16.32;45.17;98688.81;7052351;28;20321;-80
2023/12/30 15:42:52;;;;;;;2.60;2.10;;;;;;;15.83;46.31;98700.38;7052693;28;20243;-79
2023/12/30 15:46:13;;;;;;;2.47;2.10;;;;;;;15.86;46.37;98694.47;7052398;28;20214;-79
2023/12/30 15:49:35;;;;;;;4.80;2.70;;;;;;;15.46;47.03;98699.03;7051825;28;20309;-80
2023/12/30 15:52:57;;;;;;;4.13;3.40;;;;;;;15.70;46.11;98673.47;7052383;28;20206;-80
2023/12/30 15:56:19;;;;;;;4.37;2.83;;;;;;;16.05;46.15;98698.66;7051736;28;20341;-80
2023/12/30 15:59:43;;;;;;;4.27;3.00;;;;;;;15.78;47.18;98701.09;7051186;28;20283;-79
2023/12/30 16:03:05;;;;;;;5.97;4.53;;;;;;;15.78;47.70;98697.53;7053002;28;20208;-80
2023/12/30 16:06:26;;;;;;;3.40;2.50;;;;;;;15.95;47.23;98704.72;7057264;28;20346;-79
2023/12/30 16:09:48;;;;;;;4.10;3.27;;;;;;;15.55;46.91;98693.00;7032275;28;20312;-79
2023/12/30 16:13:09;;;;;;;3.87;3.00;;;;;;;15.56;47.22;98691.94;7027748;28;20266;-80
2023/12/30 16:16:34;;;;;;;6.13;5.30;;;;;;;15.35;48.14;98691.72;7028683;28;20339;-79
2023/12/30 16:19:56;;;;;;;6.50;3.80;;;;;;;15.46;48.04;98696.34;7041463;28;20223;-79
2023/12/30 16:23:17;;;;;;;5.57;4.07;;;;;;;14.93;49.34;98684.75;7057699;28;20747;-80
2023/12/30 16:26:40;;;;;;;6.50;4.30;;;;;;;15.01;49.07;98687.94;7056665;28;20750;-80
2023/12/30 16:30:02;;;;;;;18.57;16.67;;;;;;;14.93;49.27;98696.41;7056369;28;20696;-78
2023/12/30 16:33:25;;;;;;;28.37;25.37;;;;;;;14.76;50.11;98690.03;7034537;27;20233;-78
2023/12/30 16:36:46;;;;;;;18.80;11.73;;;;;;;14.80;49.42;98690.41;7027367;28;20236;-79
2023/12/30 16:40:09;;;;;;;6.50;5.17;;;;;;;14.56;50.00;98702.25;7027736;28;20324;-78
2023/12/30 16:43:32;;;;;;;5.87;4.53;;;;;;;14.09;51.17;98685.00;7028141;28;20200;-79
2023/12/30 16:46:54;;;;;;;9.73;5.80;;;;;;;14.00;51.36;98699.13;7027644;28;20208;-81
2023/12/30 16:50:18;;;;;;;11.27;8.13;;;;;;;14.33;50.87;98696.81;7027988;28;20366;-76
2023/12/30 16:53:41;;;;;;;10.13;7.63;;;;;;;14.86;49.91;98687.56;7028061;28;20225;-78
2023/12/30 16:57:02;;;;;;;12.10;9.00;;;;;;;14.86;48.97;98692.19;7027221;28;20694;-79
2023/12/30 17:00:27;;;;;;;12.23;6.57;;;;;;;14.69;49.46;98689.31;7027349;28;20217;-81
2023/12/30 17:03:48;;;;;;;7.27;6.07;;;;;;;14.65;50.01;98687.31;7027552;28;20205;-77
2023/12/30 17:07:12;;;;;;;7.20;5.10;;;;;;;14.39;50.49;98682.31;7047089;28;20710;-79
2023/12/30 17:10:34;;;;;;;5.40;4.83;;;;;;;14.51;50.35;98685.88;7055341;28;20201;-78
2023/12/30 17:13:55;;;;;;;6.13;5.03;;;;;;;14.29;50.46;98674.72;7055030;28;20200;-80
2023/12/30 17:17:17;;;;;;;5.90;4.47;;;;;;;14.43;49.89;98678.91;7054584;28;20259;-79
2023/12/30 17:20:38;;;;;;;7.90;4.80;;;;;;;14.44;49.61;98679.72;7032959;28;20804;-79
2023/12/30 17:24:01;;;;;;;9.00;8.10;;;;;;;14.20;50.43;98667.16;7027790;28;20248;-78
2023/12/30 17:27:25;;;;;;;11.53;8.77;;;;;;;14.19;50.27;98679.06;7050895;28;20658;-79
2023/12/30 17:30:47;;;;;;;5.80;4.00;;;;;;;14.08;49.87;98674.38;7027495;28;20227;-82
2023/12/30 17:34:10;;;;;;;5.30;3.93;;;;;;;13.57;51.13;98665.94;7027111;28;20347;-79
2023/12/30 17:37:32;;;;;;;4.93;3.60;;;;;;;13.71;51.28;98667.41;7024934;28;20232;-80
2023/12/30 17:40:55;;;;;;;3.63;3.30;;;;;;;13.66;50.64;98641.00;7050604;28;20209;-80
2023/12/30 17:44:16;;;;;;;3.40;3.10;;;;;;;13.56;51.17;98665.09;7056520;28;20204;-80
2023/12/30 17:47:38;;;;;;;3.43;3.13;;;;;;;13.71;51.18;98652.00;7056230;28;20312;-80
2023/12/30 17:51:00;;;;;;;4.30;3.43;;;;;;;13.77;50.76;98658.38;7054354;28;20250;-80